createdAt,value
2022-11-02T00:01:21.277Z,94.37
2022-11-02T00:03:48.258Z,94.30
2022-11-02T00:06:14.802Z,94.22
2022-11-02T00:08:41.188Z,93.91
2022-11-02T00:11:07.600Z,93.80
2022-11-02T00:13:34.057Z,93.53
2022-11-02T00:16:07.564Z,93.23
2022-11-02T00:18:35.277Z,93.14
2022-11-02T00:21:02.207Z,93.03
2022-11-02T00:23:29.706Z,93.03
2022-11-02T00:25:59.567Z,92.92
2022-11-02T00:28:28.479Z,92.79
2022-11-02T00:30:54.811Z,92.69
2022-11-02T00:33:21.175Z,92.42
2022-11-02T00:35:47.827Z,92.24
2022-11-02T00:38:14.215Z,91.92
2022-11-02T00:40:40.541Z,91.33
2022-11-02T00:43:06.918Z,90.99
2022-11-02T00:45:33.259Z,90.39
2022-11-02T00:47:59.657Z,90.08
2022-11-02T00:50:25.996Z,89.66
2022-11-02T00:52:52.332Z,89.45
2022-11-02T00:55:18.737Z,89.41
2022-11-02T00:57:45.143Z,89.17
2022-11-02T01:00:12.158Z,89.11
2022-11-02T01:02:39.048Z,88.78
2022-11-02T01:05:06.216Z,88.51
2022-11-02T01:07:32.581Z,88.25
2022-11-02T01:09:58.938Z,88.18
2022-11-02T01:12:25.734Z,88.23
2022-11-02T01:14:52.196Z,89.84
2022-11-02T01:17:19.378Z,91.11
2022-11-02T01:19:45.706Z,91.35
2022-11-02T01:22:12.049Z,90.24
2022-11-02T01:24:38.389Z,89.98
2022-11-02T01:27:04.727Z,89.78
2022-11-02T01:29:31.067Z,89.50
2022-11-02T01:31:57.420Z,89.69
2022-11-02T01:34:23.774Z,89.60
2022-11-02T01:36:50.359Z,89.31
2022-11-02T01:39:16.849Z,89.03
2022-11-02T01:41:43.295Z,88.71
2022-11-02T01:44:31.036Z,88.75
2022-11-02T01:47:02.903Z,89.13
2022-11-02T01:49:33.740Z,89.66
2022-11-02T01:52:07.696Z,90.47
2022-11-02T01:55:02.848Z,90.38
2022-11-02T01:57:31.054Z,90.20
2022-11-02T02:00:05.803Z,90.57
2022-11-02T02:02:34.505Z,90.63
2022-11-02T02:05:07.678Z,90.71
2022-11-02T02:07:37.179Z,90.87
2022-11-02T02:10:05.067Z,90.71
2022-11-02T02:12:32.904Z,91.10
2022-11-02T02:14:59.968Z,90.85
2022-11-02T02:17:38.347Z,91.06
2022-11-02T02:20:13.788Z,91.01
2022-11-02T02:22:54.410Z,91.19
2022-11-02T02:25:51.668Z,91.18
2022-11-02T02:28:21.074Z,91.48
2022-11-02T02:30:54.450Z,91.51
2022-11-02T02:33:31.354Z,91.81
2022-11-02T02:36:07.673Z,91.32
2022-11-02T02:38:41.753Z,91.52
2022-11-02T02:41:19.914Z,91.89
2022-11-02T02:43:50.394Z,92.01
2022-11-02T02:46:21.273Z,92.03
2022-11-02T02:48:48.606Z,92.21
2022-11-02T02:51:21.479Z,92.32
2022-11-02T02:53:54.182Z,92.49
2022-11-02T02:56:24.944Z,92.58
2022-11-02T02:58:58.347Z,92.65
2022-11-02T03:01:26.476Z,92.88
2022-11-02T03:03:53.066Z,92.85
2022-11-02T03:06:26.019Z,92.94
2022-11-02T03:09:13.788Z,92.94
2022-11-02T03:11:56.501Z,92.86
2022-11-02T03:15:02.033Z,92.90
2022-11-02T03:17:54.429Z,92.66
2022-11-02T03:20:50.940Z,92.52
2022-11-02T03:23:41.461Z,92.55
2022-11-02T03:26:10.758Z,92.34
2022-11-02T03:28:40.059Z,92.00
2022-11-02T03:31:28.270Z,92.03
2022-11-02T03:34:06.934Z,91.77
2022-11-02T03:36:39.800Z,91.67
2022-11-02T03:39:08.952Z,91.61
2022-11-02T03:41:37.822Z,91.42
2022-11-02T03:44:08.569Z,91.41
2022-11-02T03:46:36.913Z,91.07
2022-11-02T03:49:08.554Z,91.03
2022-11-02T03:51:38.528Z,90.90
2022-11-02T03:54:31.554Z,90.46
2022-11-02T03:59:34.816Z,90.33
2022-11-02T04:02:03.204Z,89.90
2022-11-02T04:04:29.620Z,90.11
2022-11-02T04:06:56.708Z,89.79
2022-11-02T04:09:23.138Z,89.21
2022-11-02T04:12:07.827Z,88.96
2022-11-02T04:14:40.092Z,88.52
2022-11-02T04:17:27.144Z,88.10
2022-11-02T04:19:53.898Z,88.42
2022-11-02T04:22:39.506Z,88.24
2022-11-02T04:25:18.253Z,88.15
2022-11-02T04:27:49.708Z,88.46
2022-11-02T04:30:18.383Z,88.17
2022-11-02T04:33:05.652Z,87.85
2022-11-02T04:35:32.746Z,87.76
2022-11-02T04:38:17.730Z,87.88
2022-11-02T04:40:44.421Z,88.04
2022-11-02T04:43:10.861Z,87.82
2022-11-02T04:45:37.751Z,87.90
2022-11-02T04:48:07.117Z,87.29
2022-11-02T04:50:34.556Z,87.14
2022-11-02T04:53:03.378Z,87.20
2022-11-02T04:55:30.424Z,87.11
2022-11-02T04:57:56.774Z,86.93
2022-11-02T05:00:23.773Z,86.92
2022-11-02T05:02:50.787Z,87.02
2022-11-02T05:05:18.361Z,87.35
2022-11-02T05:07:44.778Z,87.73
2022-11-02T05:10:11.373Z,88.58
2022-11-02T05:12:38.137Z,89.56
2022-11-02T05:15:04.996Z,90.44
2022-11-02T05:17:31.478Z,90.79
2022-11-02T05:19:57.799Z,91.42
2022-11-02T05:22:24.137Z,91.55
2022-11-02T05:24:50.459Z,91.98
2022-11-02T05:27:16.907Z,92.38
2022-11-02T05:29:44.439Z,92.45
2022-11-02T05:32:10.821Z,92.47
2022-11-02T05:34:37.176Z,92.45
2022-11-02T05:37:03.564Z,92.58
2022-11-02T05:39:29.940Z,92.74
2022-11-02T05:41:56.290Z,92.99
2022-11-02T05:44:22.641Z,92.89
2022-11-02T05:46:48.957Z,92.92
2022-11-02T05:49:15.288Z,93.22
2022-11-02T05:51:43.807Z,93.14
2022-11-02T05:54:10.127Z,93.11
2022-11-02T05:56:36.467Z,93.15
2022-11-02T05:59:03.012Z,93.10
2022-11-02T06:01:29.423Z,92.98
2022-11-02T06:03:55.907Z,93.10
2022-11-02T06:06:22.318Z,92.89
2022-11-02T06:08:48.675Z,92.65
2022-11-02T06:11:15.486Z,92.78
2022-11-02T06:13:42.617Z,92.46
2022-11-02T06:16:11.054Z,92.29
2022-11-02T06:18:40.454Z,92.18
2022-11-02T06:21:07.138Z,91.82
2022-11-02T06:23:34.067Z,91.70
2022-11-02T06:26:00.724Z,91.81
2022-11-02T06:28:28.469Z,91.88
2022-11-02T06:30:55.164Z,91.70
2022-11-02T06:33:22.341Z,91.95
2022-11-02T06:35:53.273Z,91.82
2022-11-02T06:38:20.052Z,91.45
2022-11-02T06:41:04.191Z,91.34
2022-11-02T06:43:30.853Z,91.47
2022-11-02T06:45:58.172Z,91.60
2022-11-02T06:48:28.690Z,91.32
2022-11-02T06:50:59.934Z,91.23
2022-11-02T06:53:26.534Z,91.20
2022-11-02T06:55:54.292Z,91.23
2022-11-02T06:58:22.180Z,91.24
2022-11-02T07:00:49.258Z,90.99
2022-11-02T07:03:15.995Z,90.98
2022-11-02T07:05:42.511Z,91.05
2022-11-02T07:08:08.837Z,90.95
2022-11-02T07:10:35.622Z,90.78
2022-11-02T07:13:02.249Z,90.64
2022-11-02T07:15:28.771Z,90.60
2022-11-02T07:17:55.116Z,90.54
2022-11-02T07:20:21.650Z,90.29
2022-11-02T07:22:59.515Z,90.29
2022-11-02T07:25:27.377Z,90.15
2022-11-02T07:27:54.914Z,89.92
2022-11-02T07:30:21.269Z,89.77
2022-11-02T07:32:47.603Z,89.59
2022-11-02T07:35:15.700Z,89.21
2022-11-02T07:37:42.436Z,88.88
2022-11-02T07:40:10.781Z,88.74
2022-11-02T07:42:43.677Z,88.47
2022-11-02T07:45:10.623Z,88.40
2022-11-02T07:47:45.035Z,88.35
2022-11-02T07:50:13.111Z,88.02
2022-11-02T07:52:53.855Z,87.59
2022-11-02T07:55:22.490Z,87.16
2022-11-02T07:57:57.675Z,86.66
2022-11-02T08:00:25.775Z,86.94
2022-11-02T08:02:56.575Z,87.12
2022-11-02T08:05:23.667Z,86.61
2022-11-02T08:08:05.541Z,86.29
2022-11-02T08:10:37.427Z,85.55
2022-11-02T08:13:07.730Z,84.87
2022-11-02T08:15:34.130Z,84.94
2022-11-02T08:18:27.847Z,85.00
2022-11-02T08:20:56.675Z,84.61
2022-11-02T08:23:23.464Z,84.46
2022-11-02T08:25:50.810Z,84.37
2022-11-02T08:28:28.990Z,84.01
2022-11-02T08:30:55.346Z,83.65
2022-11-02T08:33:27.767Z,83.42
2022-11-02T08:35:54.240Z,82.75
2022-11-02T08:38:23.499Z,82.75
2022-11-02T08:40:49.851Z,83.08
2022-11-02T08:43:16.333Z,83.00
2022-11-02T08:48:32.176Z,82.85
2022-11-02T08:50:58.593Z,82.63
2022-11-02T08:53:25.168Z,82.46
2022-11-02T08:55:51.557Z,82.56
2022-11-02T08:58:18.453Z,82.63
2022-11-02T09:00:45.075Z,82.39
2022-11-02T09:03:13.189Z,81.56
2022-11-02T09:05:42.479Z,81.80
2022-11-02T09:08:17.887Z,81.47
2022-11-02T09:10:46.411Z,81.54
2022-11-02T09:13:15.225Z,81.22
2022-11-02T09:15:42.075Z,81.22
2022-11-02T09:18:09.156Z,81.36
2022-11-02T09:20:36.157Z,81.18
2022-11-02T09:23:02.540Z,80.34
2022-11-02T09:25:29.006Z,80.52
2022-11-02T09:27:56.732Z,80.13
2022-11-02T09:30:24.377Z,80.26
2022-11-02T09:33:02.404Z,80.02
2022-11-02T09:35:32.109Z,79.57
2022-11-02T09:37:58.528Z,80.19
2022-11-02T09:40:27.751Z,79.51
2022-11-02T09:43:21.228Z,79.82
2022-11-02T09:46:02.091Z,79.34
2022-11-02T09:48:51.864Z,79.31
2022-11-02T09:51:23.089Z,78.19
2022-11-02T09:53:54.514Z,78.45
2022-11-02T09:56:20.967Z,77.81
2022-11-02T09:58:59.445Z,77.68
2022-11-02T10:01:34.702Z,77.21
2022-11-02T10:04:14.953Z,76.83
2022-11-02T10:06:50.509Z,76.18
2022-11-02T10:09:35.491Z,76.80
2022-11-02T10:12:27.786Z,75.94
2022-11-02T10:15:15.691Z,75.30
2022-11-02T10:17:43.862Z,74.88
2022-11-02T10:20:34.347Z,74.41
2022-11-02T10:23:07.908Z,75.81
2022-11-02T10:25:35.740Z,75.29
2022-11-02T10:28:10.388Z,74.33
2022-11-02T10:30:37.389Z,74.33
2022-11-02T10:33:14.076Z,74.59
2022-11-02T10:36:16.415Z,74.88
2022-11-02T10:38:59.255Z,73.80
2022-11-02T10:42:02.712Z,73.48
2022-11-02T10:44:38.031Z,73.11
2022-11-02T10:47:19.517Z,73.26
2022-11-02T10:49:52.631Z,71.65
2022-11-02T10:52:19.343Z,71.86
2022-11-02T10:54:49.406Z,71.84
2022-11-02T10:57:22.163Z,70.73
2022-11-02T11:00:24.135Z,71.84
2022-11-02T11:03:09.101Z,70.90
2022-11-02T11:05:58.144Z,70.76
2022-11-02T11:08:39.183Z,70.95
2022-11-02T11:11:15.966Z,70.17
2022-11-02T11:16:45.849Z,70.31
2022-11-02T11:22:23.496Z,69.56
2022-11-02T11:24:51.116Z,70.20
2022-11-02T11:27:18.940Z,68.99
2022-11-02T11:29:57.028Z,69.25
2022-11-02T11:32:29.803Z,68.97
2022-11-02T11:34:58.358Z,69.37
2022-11-02T11:37:26.452Z,68.93
2022-11-02T11:40:00.208Z,68.72
2022-11-02T11:42:31.199Z,67.85
2022-11-02T11:45:06.841Z,68.23
2022-11-02T11:47:38.996Z,67.86
2022-11-02T11:50:26.868Z,67.49
2022-11-02T11:53:22.844Z,67.19
2022-11-02T11:56:00.161Z,67.92
2022-11-02T11:58:34.565Z,68.24
2022-11-02T12:01:20.160Z,68.00
2022-11-02T12:03:55.540Z,66.20
2022-11-02T12:06:50.243Z,67.25
2022-11-02T12:09:37.342Z,67.27
2022-11-02T12:12:17.232Z,65.95
2022-11-02T12:15:13.438Z,65.63
2022-11-02T12:18:19.821Z,64.39
2022-11-02T12:21:09.453Z,64.70
2022-11-02T12:24:06.337Z,64.27
2022-11-02T12:26:50.931Z,64.81
2022-11-02T12:29:49.272Z,63.68
2022-11-02T12:32:24.712Z,64.72
2022-11-02T12:35:31.465Z,63.59
2022-11-02T12:38:39.497Z,64.07
2022-11-02T12:41:20.973Z,64.52
2022-11-02T12:43:50.073Z,63.12
2022-11-02T12:47:01.272Z,63.28
2022-11-02T12:49:52.300Z,62.43
2022-11-02T12:53:14.142Z,63.21
2022-11-02T12:55:48.479Z,61.51
2022-11-02T12:58:21.979Z,61.41
2022-11-02T13:00:56.965Z,61.87
2022-11-02T13:03:32.350Z,60.79
2022-11-02T13:06:06.244Z,61.40
2022-11-02T13:08:40.218Z,60.95
2022-11-02T13:11:31.332Z,60.76
2022-11-02T13:13:59.996Z,60.05
2022-11-02T13:16:37.872Z,60.12
2022-11-02T13:19:06.166Z,59.24
2022-11-02T13:21:43.705Z,59.86
2022-11-02T13:24:19.404Z,59.18
2022-11-02T13:26:53.153Z,60.00
2022-11-02T13:29:41.661Z,60.05
2022-11-02T13:32:41.852Z,59.77
2022-11-02T13:35:38.321Z,59.06
2022-11-02T13:38:35.352Z,59.71
2022-11-02T13:41:37.545Z,59.69
2022-11-02T13:44:23.120Z,60.57
2022-11-02T13:47:01.389Z,61.23
2022-11-02T13:49:36.613Z,61.66
2022-11-02T13:52:16.262Z,61.45
2022-11-02T13:57:28.982Z,61.41
2022-11-02T13:59:55.781Z,61.80
2022-11-02T14:02:24.377Z,62.21
2022-11-02T14:04:51.158Z,62.81
2022-11-02T14:07:27.847Z,63.56
2022-11-02T14:10:08.380Z,63.79
2022-11-02T14:12:55.031Z,64.25
2022-11-02T14:15:21.564Z,64.38
2022-11-02T14:18:07.646Z,65.00
2022-11-02T14:20:37.314Z,65.06
2022-11-02T14:23:09.902Z,65.48
2022-11-02T14:25:56.368Z,65.11
2022-11-02T14:28:22.718Z,65.45
2022-11-02T14:30:52.413Z,65.00
2022-11-02T14:33:38.978Z,65.46
2022-11-02T14:36:24.864Z,65.78
2022-11-02T14:39:05.266Z,66.66
2022-11-02T14:41:50.379Z,66.83
2022-11-02T14:44:34.112Z,66.95
2022-11-02T14:47:09.148Z,67.13
2022-11-02T14:49:48.281Z,67.14
2022-11-02T14:52:14.578Z,67.22
2022-11-02T14:54:51.744Z,67.84
2022-11-02T14:57:26.000Z,67.90
2022-11-02T14:59:55.829Z,68.14
2022-11-02T15:02:30.525Z,68.27
2022-11-02T15:05:01.810Z,68.09
2022-11-02T15:07:52.095Z,68.16
2022-11-02T15:10:18.366Z,68.38
2022-11-02T15:12:48.547Z,68.28
2022-11-02T15:15:31.826Z,68.64
2022-11-02T15:17:58.115Z,68.59
2022-11-02T15:20:31.634Z,69.42
2022-11-02T15:23:16.257Z,69.36
2022-11-02T15:25:51.191Z,69.75
2022-11-02T15:28:22.476Z,70.23
2022-11-02T15:31:16.378Z,70.48
2022-11-02T15:33:46.127Z,70.88
2022-11-02T15:36:21.656Z,71.18
2022-11-02T15:38:50.651Z,71.48
2022-11-02T15:41:26.895Z,71.81
2022-11-02T15:44:11.878Z,72.18
2022-11-02T15:46:58.847Z,72.56
2022-11-02T15:49:57.512Z,72.68
2022-11-02T15:53:21.146Z,72.95
2022-11-02T15:55:54.944Z,73.17
2022-11-02T15:58:45.842Z,73.62
2022-11-02T16:01:17.256Z,73.80
2022-11-02T16:04:05.822Z,73.84
2022-11-02T16:06:37.948Z,74.10
2022-11-02T16:09:38.440Z,74.45
2022-11-02T16:12:21.223Z,74.85
2022-11-02T16:14:55.761Z,75.01
2022-11-02T16:17:30.003Z,75.33
2022-11-02T16:20:16.650Z,75.51
2022-11-02T16:22:59.266Z,75.82
2022-11-02T16:25:35.187Z,75.87
2022-11-02T16:28:18.335Z,75.99
2022-11-02T16:31:01.393Z,76.22
2022-11-02T16:33:36.797Z,76.33
2022-11-02T16:36:03.931Z,76.55
2022-11-02T16:38:30.973Z,76.46
2022-11-02T16:40:57.763Z,76.58
2022-11-02T16:43:26.020Z,76.76
2022-11-02T16:46:00.106Z,76.88
2022-11-02T16:48:29.788Z,77.07
2022-11-02T16:51:09.215Z,77.13
2022-11-02T16:53:40.663Z,77.20
2022-11-02T16:56:29.197Z,77.34
2022-11-02T16:59:01.698Z,77.19
2022-11-02T17:01:40.703Z,77.09
2022-11-02T17:04:14.421Z,76.79
2022-11-02T17:06:44.451Z,76.51
2022-11-02T17:09:23.763Z,76.40
2022-11-02T17:11:51.881Z,75.82
2022-11-02T17:14:21.335Z,75.85
2022-11-02T17:17:06.810Z,75.47
2022-11-02T17:19:44.770Z,75.42
2022-11-02T17:22:26.556Z,74.97
2022-11-02T17:25:04.651Z,75.01
2022-11-02T17:27:39.293Z,74.73
2022-11-02T17:30:34.229Z,74.55
2022-11-02T17:33:19.961Z,74.60
2022-11-02T17:35:48.222Z,74.31
2022-11-02T17:38:15.109Z,74.35
2022-11-02T17:40:42.082Z,74.19
2022-11-02T17:43:09.019Z,74.25
2022-11-02T17:45:37.439Z,73.93
2022-11-02T17:48:08.195Z,73.63
2022-11-02T17:50:36.464Z,74.12
2022-11-02T17:53:04.025Z,74.11
2022-11-02T17:55:33.068Z,74.18
2022-11-02T17:58:00.158Z,74.46
2022-11-02T18:00:28.157Z,74.62
2022-11-02T18:02:56.917Z,75.01
2022-11-02T18:05:37.338Z,75.10
2022-11-02T18:08:05.970Z,75.13
2022-11-02T18:10:36.660Z,75.09
2022-11-02T18:13:04.013Z,74.87
2022-11-02T18:15:32.463Z,74.70
2022-11-02T18:18:00.092Z,74.72
2022-11-02T18:20:28.052Z,74.48
2022-11-02T18:22:55.660Z,74.44
2022-11-02T18:25:23.219Z,74.18
2022-11-02T18:27:49.732Z,73.86
2022-11-02T18:30:17.555Z,73.77
2022-11-02T18:32:45.391Z,73.37
2022-11-02T18:35:17.109Z,73.29
2022-11-02T18:37:43.912Z,72.94
2022-11-02T18:40:12.698Z,73.07
2022-11-02T18:42:40.119Z,73.11
2022-11-02T18:45:08.261Z,73.18
2022-11-02T18:47:35.057Z,73.09
2022-11-02T18:50:01.640Z,73.09
2022-11-02T18:52:32.185Z,73.12
2022-11-02T18:55:04.839Z,73.27
2022-11-02T18:57:32.482Z,73.11
2022-11-02T18:59:59.690Z,73.02
2022-11-02T19:02:26.290Z,73.00
2022-11-02T19:04:52.890Z,73.13
2022-11-02T19:07:38.058Z,73.21
2022-11-02T19:10:04.758Z,73.11
2022-11-02T19:12:31.373Z,72.89
2022-11-02T19:14:57.949Z,73.32
2022-11-02T19:17:26.035Z,73.20
2022-11-02T19:19:52.468Z,73.38
2022-11-02T19:22:21.624Z,73.24
2022-11-02T19:24:48.779Z,73.06
2022-11-02T19:27:17.859Z,73.14
2022-11-02T19:29:44.377Z,73.31
2022-11-02T19:32:10.945Z,73.40
2022-11-02T19:34:38.218Z,73.34
2022-11-02T19:37:06.177Z,73.29
2022-11-02T19:39:33.057Z,73.31
2022-11-02T19:41:59.680Z,73.09
2022-11-02T19:44:26.471Z,72.83
2022-11-02T19:46:52.858Z,73.10
2022-11-02T19:49:19.243Z,73.29
2022-11-02T19:51:45.724Z,73.37
2022-11-02T19:54:12.278Z,73.18
2022-11-02T19:56:38.825Z,73.32
2022-11-02T19:59:06.269Z,73.23
2022-11-02T20:01:37.732Z,73.24
2022-11-02T20:04:05.400Z,73.10
2022-11-02T20:06:33.373Z,73.30
2022-11-02T20:09:01.742Z,73.16
2022-11-02T20:11:28.744Z,73.37
2022-11-02T20:14:00.889Z,73.48
2022-11-02T20:16:27.707Z,73.49
2022-11-02T20:18:54.623Z,73.33
2022-11-02T20:21:31.592Z,73.46
2022-11-02T20:24:00.975Z,73.48
2022-11-02T20:26:31.091Z,73.62
2022-11-02T20:28:58.907Z,73.46
2022-11-02T20:31:28.035Z,73.54
2022-11-02T20:33:54.538Z,73.56
2022-11-02T20:36:21.376Z,73.90
2022-11-02T20:38:49.190Z,73.95
2022-11-02T20:41:18.994Z,73.96
2022-11-02T20:43:47.948Z,74.03
2022-11-02T20:46:40.166Z,74.12
2022-11-02T20:49:20.098Z,74.46
2022-11-02T20:51:54.917Z,74.30
2022-11-02T20:54:22.210Z,74.41
2022-11-02T20:56:49.928Z,74.68
2022-11-02T20:59:16.653Z,74.70
2022-11-02T21:01:43.295Z,74.92
2022-11-02T21:04:12.736Z,74.94
2022-11-02T21:06:41.823Z,75.12
2022-11-02T21:09:12.001Z,75.20
2022-11-02T21:11:57.607Z,75.30
2022-11-02T21:14:23.995Z,75.40
2022-11-02T21:16:50.359Z,75.47
2022-11-02T21:19:16.714Z,75.57
2022-11-02T21:21:43.110Z,75.59
2022-11-02T21:24:09.717Z,75.72
2022-11-02T21:26:36.106Z,75.77
2022-11-02T21:29:02.490Z,75.74
2022-11-02T21:31:28.836Z,75.78
2022-11-02T21:33:55.292Z,76.14
2022-11-02T21:36:25.134Z,76.13
2022-11-02T21:38:51.558Z,76.19
2022-11-02T21:41:21.203Z,76.36
2022-11-02T21:43:51.614Z,76.71
2022-11-02T21:46:21.715Z,76.55
2022-11-02T21:48:48.403Z,76.79
2022-11-02T21:51:17.601Z,77.00
2022-11-02T21:53:46.204Z,77.07
2022-11-02T21:56:25.563Z,77.19
2022-11-02T21:58:53.352Z,77.01
2022-11-02T22:01:40.916Z,77.29
2022-11-02T22:04:08.025Z,77.23
2022-11-02T22:06:34.758Z,77.43
2022-11-02T22:09:01.753Z,77.52
2022-11-02T22:11:28.484Z,77.74
2022-11-02T22:13:57.177Z,77.77
2022-11-02T22:16:34.615Z,77.41
2022-11-02T22:19:03.873Z,77.81
2022-11-02T22:21:33.121Z,77.91
2022-11-02T22:24:00.344Z,77.87
2022-11-02T22:26:28.777Z,77.94
2022-11-02T22:29:00.580Z,78.09
2022-11-02T22:31:29.853Z,78.01
2022-11-02T22:33:59.082Z,77.90
2022-11-02T22:36:28.406Z,78.03
2022-11-02T22:38:56.256Z,78.01
2022-11-02T22:41:29.875Z,77.84
2022-11-02T22:43:58.882Z,77.90
2022-11-02T22:46:27.010Z,77.96
2022-11-02T22:48:58.711Z,77.94
2022-11-02T22:51:27.509Z,77.93
2022-11-02T22:53:54.817Z,77.97
2022-11-02T22:56:23.321Z,77.88
2022-11-02T22:58:50.217Z,77.75
2022-11-02T23:01:22.003Z,77.86
2022-11-02T23:03:49.510Z,77.95
2022-11-02T23:06:18.220Z,78.20
2022-11-02T23:08:46.027Z,78.13
2022-11-02T23:11:22.849Z,77.90
2022-11-02T23:13:57.464Z,78.08
2022-11-02T23:16:42.253Z,78.19
2022-11-02T23:19:27.219Z,78.36
2022-11-02T23:22:39.301Z,78.44
2022-11-02T23:25:12.763Z,78.48
2022-11-02T23:28:06.102Z,78.39
2022-11-02T23:30:55.903Z,78.27
2022-11-02T23:33:25.293Z,78.15
2022-11-02T23:36:10.132Z,78.00
2022-11-02T23:38:55.558Z,78.17
2022-11-02T23:41:22.036Z,78.23
2022-11-02T23:43:48.866Z,78.16
2022-11-02T23:46:15.588Z,77.99
2022-11-02T23:48:42.411Z,78.14
2022-11-02T23:51:30.490Z,78.28
2022-11-02T23:54:15.768Z,78.34
2022-11-02T23:56:43.083Z,78.37
2022-11-02T23:59:13.980Z,78.51
